Time;durP1;ratioP1;P1;durP2;ratioP2;P2;SDS_P1;SDS_P2;PMS_P1;PMS_P2;Temp;Humidity;BMP_temperature;BMP_pressure;BME280_temperature;BME280_humidity;BME280_pressure;Samples;Min_cycle;Max_cycle;Signal;HPM_P1;HPM_P2
2024/03/02 06:57:55;;;;;;;26.83;11.80;;;;;;;3.88;97.64;95427.34;2083224;28;20560;-64
2024/03/02 06:58:57;;;;;;;21.90;12.00;;;;;;;4.12;96.54;95437.66;2078991;28;20592;-65
2024/03/02 07:03:35;;;;;;;22.15;11.45;;;;;;;4.61;93.28;95440.03;2081292;28;20912;-62
2024/03/02 07:12:11;;;;;;;25.17;12.52;;;;;;;3.68;97.25;95452.19;2092025;27;20579;-65
2024/03/02 07:19:06;;;;;;;25.88;12.35;;;;;;;3.59;97.84;95445.63;2103400;27;20545;-67
2024/03/02 07:24:59;;;;;;;23.13;11.57;;;;;;;3.42;97.96;95422.16;2091391;27;21400;-67
2024/03/02 07:29:59;;;;;;;21.50;11.32;;;;;;;3.73;97.38;95454.59;2074235;27;1269194;-68
2024/03/02 07:37:18;;;;;;;25.20;12.55;;;;;;;3.89;96.26;95435.03;2106011;27;20549;-67
2024/03/02 07:40:50;;;;;;;25.90;12.70;;;;;;;4.05;95.04;95448.22;2082602;28;20603;-64
2024/03/02 07:44:34;;;;;;;27.98;11.68;;;;;;;4.13;94.92;95441.94;2099152;27;20351;-64
2024/03/02 07:45:36;;;;;;;25.33;12.45;;;;;;;4.21;94.09;95447.63;2092579;27;20191;-64
2024/03/02 07:49:03;;;;;;;20.63;11.57;;;;;;;4.31;93.13;95442.97;2106623;27;20555;-64
2024/03/02 07:50:09;;;;;;;25.30;12.23;;;;;;;4.50;92.71;95454.25;2106730;28;20320;-64
2024/03/02 07:51:10;;;;;;;18.75;11.50;;;;;;;4.56;92.04;95453.19;2104536;28;20626;-65
2024/03/02 07:52:11;;;;;;;20.83;11.43;;;;;;;4.87;91.22;95460.50;2105048;28;20283;-64
2024/03/02 07:53:14;;;;;;;20.67;11.77;;;;;;;5.13;89.88;95461.19;2105535;28;20279;-64
2024/03/02 07:54:16;;;;;;;21.05;11.80;;;;;;;5.39;88.74;95456.66;2104030;28;20930;-65
2024/03/02 07:55:17;;;;;;;17.25;10.18;;;;;;;5.74;87.41;95459.47;2104390;28;20198;-64
2024/03/02 07:56:22;;;;;;;16.90;10.70;;;;;;;6.03;85.98;95463.38;2095534;28;20239;-65
2024/03/02 07:57:23;;;;;;;19.35;10.82;;;;;;;6.21;84.39;95448.72;2094318;28;20249;-65
2024/03/02 07:58:25;;;;;;;15.98;10.15;;;;;;;6.52;84.09;95462.81;2099367;28;20748;-65
2024/03/02 07:59:26;;;;;;;21.50;10.90;;;;;;;6.61;82.45;95448.56;2094396;28;20241;-70
2024/03/02 08:00:28;;;;;;;17.00;9.73;;;;;;;6.61;82.45;95448.56;2094534;28;20203;-70
2024/03/02 08:01:31;;;;;;;17.33;10.07;;;;;;;7.04;80.41;95469.00;2095808;28;21161;-70
2024/03/02 08:02:32;;;;;;;17.88;10.15;;;;;;;7.23;79.76;95457.72;2093891;28;20755;-70
2024/03/02 08:03:34;;;;;;;16.80;9.20;;;;;;;7.63;79.11;95460.84;2095164;28;20704;-70
2024/03/02 08:04:37;;;;;;;16.48;9.50;;;;;;;7.84;76.87;95462.31;2094858;28;20199;-70
2024/03/02 08:05:38;;;;;;;15.38;9.73;;;;;;;8.57;76.02;95466.28;2094798;28;20192;-72
2024/03/02 08:06:40;;;;;;;17.27;10.00;;;;;;;9.03;74.06;95462.84;2099512;28;20282;-72
2024/03/02 08:07:44;;;;;;;13.40;8.35;;;;;;;9.69;73.49;95458.16;2098023;28;20200;-70
2024/03/02 08:08:45;;;;;;;15.93;9.85;;;;;;;9.62;71.53;95447.25;2097667;28;20364;-69
2024/03/02 08:09:47;;;;;;;15.90;9.43;;;;;;;9.64;71.68;95448.00;2095856;28;20225;-70
2024/03/02 08:10:49;;;;;;;18.75;10.52;;;;;;;10.24;70.27;95447.88;2095399;28;20292;-66
2024/03/02 08:11:50;;;;;;;17.50;9.82;;;;;;;10.48;70.37;95460.34;2092631;28;20211;-65
2024/03/02 08:12:52;;;;;;;16.25;9.77;;;;;;;10.81;68.24;95461.75;2093181;28;20199;-66
2024/03/02 08:13:56;;;;;;;15.38;7.97;;;;;;;11.26;66.59;95457.06;2094786;28;20556;-66
2024/03/02 08:14:58;;;;;;;15.25;9.25;;;;;;;11.31;66.15;95459.38;2093611;28;20193;-66
2024/03/02 08:16:00;;;;;;;17.05;7.75;;;;;;;11.76;64.85;95457.22;2091468;28;20212;-65
2024/03/02 08:17:01;;;;;;;15.07;9.40;;;;;;;10.74;66.41;95453.47;2096051;28;20200;-65
2024/03/02 08:18:03;;;;;;;16.30;9.55;;;;;;;11.77;64.50;95458.91;2096418;28;20199;-67
2024/03/02 08:19:05;;;;;;;16.20;9.00;;;;;;;11.02;64.96;95464.72;2097323;28;20670;-66
2024/03/02 08:20:07;;;;;;;14.02;8.63;;;;;;;10.91;66.10;95460.22;2094368;28;20707;-67
2024/03/02 08:21:09;;;;;;;12.93;8.70;;;;;;;11.16;65.43;95467.28;2090366;28;20217;-66
2024/03/02 08:22:10;;;;;;;16.98;9.00;;;;;;;11.16;65.41;95453.38;2091181;28;20192;-66
2024/03/02 08:23:12;;;;;;;15.63;8.82;;;;;;;11.47;65.01;95456.59;2090685;28;20570;-66
2024/03/02 08:24:14;;;;;;;18.52;9.73;;;;;;;11.01;65.12;95442.16;2094399;28;20200;-66
2024/03/02 08:25:16;;;;;;;15.73;9.07;;;;;;;10.47;65.26;95437.81;2094337;28;20208;-66
2024/03/02 08:26:17;;;;;;;14.40;8.68;;;;;;;11.16;66.18;95442.94;2094075;28;20659;-66
2024/03/02 08:27:19;;;;;;;14.60;9.35;;;;;;;11.57;64.01;95450.63;2097852;28;20750;-66
2024/03/02 08:28:21;;;;;;;15.98;10.13;;;;;;;11.95;63.18;95445.47;2099073;28;20200;-64
2024/03/02 08:29:25;;;;;;;15.65;9.30;;;;;;;11.74;63.39;95443.41;2088736;28;20212;-64
2024/03/02 08:30:27;;;;;;;16.52;9.75;;;;;;;12.01;62.89;95453.78;2088629;28;20201;-64
2024/03/02 08:31:29;;;;;;;12.65;8.38;;;;;;;12.24;61.94;95446.13;2094763;28;20825;-66
2024/03/02 08:32:31;;;;;;;12.60;8.40;;;;;;;12.35;62.64;95446.16;2091296;28;20224;-66
2024/03/02 08:33:33;;;;;;;13.40;7.70;;;;;;;12.36;61.01;95436.56;2096074;28;20320;-66
2024/03/02 08:34:37;;;;;;;16.80;9.25;;;;;;;12.50;61.16;95452.09;2097192;28;20197;-66
2024/03/02 08:35:38;;;;;;;15.40;9.52;;;;;;;12.18;61.26;95431.66;2096472;28;20227;-66
2024/03/02 08:36:40;;;;;;;14.07;9.32;;;;;;;12.40;61.33;95435.38;2096881;28;20644;-66
2024/03/02 08:37:43;;;;;;;14.80;9.27;;;;;;;12.43;60.67;95448.25;2097586;28;20200;-66
2024/03/02 08:38:45;;;;;;;15.40;9.32;;;;;;;13.19;59.93;95448.88;2097688;28;20200;-66
2024/03/02 08:39:46;;;;;;;14.32;8.20;;;;;;;14.06;57.59;95439.75;2089321;28;20197;-66
2024/03/02 08:40:49;;;;;;;14.80;8.07;;;;;;;13.51;58.52;95440.41;2094761;28;20292;-66
2024/03/02 08:41:51;;;;;;;13.35;9.25;;;;;;;12.58;60.25;95441.94;2094651;28;20284;-66
2024/03/02 08:42:52;;;;;;;16.10;9.02;;;;;;;12.64;60.23;95448.50;2093733;28;20213;-66
2024/03/02 08:43:54;;;;;;;17.60;10.20;;;;;;;12.57;60.39;95442.88;2099297;28;20201;-66
2024/03/02 08:44:56;;;;;;;11.70;8.20;;;;;;;12.28;61.32;95444.94;2097939;28;20200;-66
2024/03/02 08:45:57;;;;;;;16.48;8.63;;;;;;;12.31;61.53;95436.03;2095565;28;20425;-66
2024/03/02 08:46:59;;;;;;;13.23;9.32;;;;;;;12.81;60.38;95444.66;2095310;28;20264;-66
2024/03/02 08:48:01;;;;;;;14.73;9.05;;;;;;;13.51;58.60;95439.56;2099049;28;20610;-70
2024/03/02 08:49:03;;;;;;;13.80;8.65;;;;;;;13.44;58.74;95454.09;2094049;28;20219;-71
2024/03/02 08:50:06;;;;;;;13.60;8.40;;;;;;;13.35;58.69;95435.44;2092144;28;20200;-71
2024/03/02 08:51:08;;;;;;;13.98;8.77;;;;;;;13.24;58.93;95448.53;2090670;28;20703;-71
2024/03/02 08:52:10;;;;;;;13.35;8.93;;;;;;;13.54;58.67;95441.97;2094766;28;20232;-71
2024/03/02 08:53:11;;;;;;;14.82;9.48;;;;;;;14.66;56.51;95440.31;2093359;28;20242;-72
2024/03/02 08:54:13;;;;;;;12.23;7.93;;;;;;;14.21;56.04;95443.81;2090418;28;20331;-71
2024/03/02 08:55:14;;;;;;;12.20;7.78;;;;;;;14.43;56.47;95439.47;2093278;28;20207;-72
2024/03/02 08:56:16;;;;;;;13.15;8.18;;;;;;;14.20;56.92;95443.94;2095208;28;20395;-71
2024/03/02 08:57:18;;;;;;;13.43;9.32;;;;;;;14.55;56.36;95448.19;2097370;28;20704;-72
2024/03/02 08:58:20;;;;;;;15.02;9.07;;;;;;;13.99;56.19;95447.28;2095325;28;20655;-71
2024/03/02 08:59:21;;;;;;;14.77;8.88;;;;;;;14.46;56.07;95439.25;2096730;28;20220;-72
2024/03/02 09:00:23;;;;;;;12.65;8.50;;;;;;;14.98;55.44;95438.66;2089853;28;20301;-70
2024/03/02 09:01:25;;;;;;;12.95;8.55;;;;;;;15.16;55.36;95445.06;2085567;28;20220;-72
2024/03/02 09:02:26;;;;;;;12.55;8.40;;;;;;;14.82;55.16;95442.53;2090833;28;20233;-72
2024/03/02 09:03:28;;;;;;;11.55;7.85;;;;;;;14.16;55.66;95432.00;2090251;28;20758;-72
2024/03/02 09:04:30;;;;;;;12.68;8.35;;;;;;;14.37;55.87;95429.47;2088663;28;20288;-72
2024/03/02 09:05:35;;;;;;;11.05;7.43;;;;;;;14.41;56.23;95443.19;2087682;28;20198;-72
2024/03/02 09:06:37;;;;;;;12.68;7.90;;;;;;;14.48;55.34;95437.31;2090718;28;20227;-72
2024/03/02 09:07:39;;;;;;;9.85;6.45;;;;;;;13.95;55.99;95440.56;2102072;28;20555;-72
2024/03/02 09:08:40;;;;;;;11.48;7.07;;;;;;;14.45;56.17;95445.47;2101181;28;20286;-72
2024/03/02 09:09:42;;;;;;;12.98;7.10;;;;;;;14.67;55.90;95435.91;2091112;28;20300;-71
2024/03/02 09:10:44;;;;;;;12.00;7.40;;;;;;;14.85;55.49;95439.69;2089748;28;20766;-71
2024/03/02 09:11:46;;;;;;;12.27;7.60;;;;;;;14.46;54.68;95434.00;2083840;28;20213;-72
2024/03/02 09:12:48;;;;;;;16.77;8.40;;;;;;;14.28;55.92;95436.28;2091608;28;20197;-71
2024/03/02 09:13:49;;;;;;;13.00;8.60;;;;;;;14.32;55.95;95421.97;2086517;28;20645;-71
2024/03/02 09:14:51;;;;;;;11.35;7.63;;;;;;;14.42;55.84;95429.94;2085585;28;20288;-71
2024/03/02 09:15:53;;;;;;;13.70;7.57;;;;;;;13.64;57.41;95435.06;2083424;28;20278;-72
2024/03/02 09:16:54;;;;;;;15.70;9.23;;;;;;;13.81;57.76;95428.53;2089204;28;20201;-71
2024/03/02 09:17:56;;;;;;;12.98;6.93;;;;;;;13.64;57.74;95421.94;2090919;28;20197;-72
2024/03/02 09:18:58;;;;;;;13.13;8.23;;;;;;;14.16;57.23;95422.31;2091321;28;20227;-72
2024/03/02 09:19:59;;;;;;;12.75;7.45;;;;;;;15.06;55.87;95432.78;2089853;28;20196;-71
2024/03/02 09:21:01;;;;;;;13.10;7.25;;;;;;;15.15;54.29;95438.13;2090810;28;20920;-72
2024/03/02 09:22:05;;;;;;;11.52;6.70;;;;;;;15.23;54.36;95432.22;2089070;28;20821;-72
2024/03/02 09:23:07;;;;;;;11.02;7.15;;;;;;;14.92;54.59;95421.63;2089006;28;20204;-72
2024/03/02 09:24:10;;;;;;;12.57;7.07;;;;;;;14.81;55.17;95430.34;2093077;28;20196;-72
2024/03/02 09:25:11;;;;;;;10.70;6.75;;;;;;;15.63;53.95;95423.66;2089326;28;20688;-71
2024/03/02 09:26:14;;;;;;;13.30;6.75;;;;;;;15.72;52.70;95419.41;2089683;28;20882;-72
2024/03/02 09:27:15;;;;;;;10.15;6.65;;;;;;;14.93;54.54;95417.19;2092729;28;20204;-72
2024/03/02 09:28:16;;;;;;;8.05;5.20;;;;;;;15.31;53.45;95426.31;2091827;28;20198;-72
2024/03/02 09:29:20;;;;;;;12.93;6.55;;;;;;;15.13;54.18;95426.06;2090686;28;20255;-72
2024/03/02 09:30:22;;;;;;;11.45;7.47;;;;;;;14.85;54.26;95431.81;2091281;28;20315;-72
2024/03/02 09:31:24;;;;;;;11.05;6.68;;;;;;;14.26;55.65;95405.84;2087033;28;20232;-71
2024/03/02 09:32:25;;;;;;;12.43;7.40;;;;;;;15.01;55.26;95425.28;2092186;28;20197;-72
2024/03/02 09:33:27;;;;;;;13.00;7.30;;;;;;;14.95;54.94;95426.59;2091104;28;20204;-72
2024/03/02 09:34:28;;;;;;;11.70;7.45;;;;;;;15.00;55.18;95419.19;2088073;28;20197;-72
2024/03/02 09:35:30;;;;;;;9.60;6.95;;;;;;;14.79;54.94;95418.28;2093703;28;20253;-72
2024/03/02 09:36:31;;;;;;;8.52;6.03;;;;;;;15.17;54.75;95425.69;2090797;28;20224;-71
2024/03/02 09:37:33;;;;;;;8.75;6.22;;;;;;;14.91;54.55;95425.19;2087379;28;20193;-71
2024/03/02 09:38:35;;;;;;;10.75;6.88;;;;;;;15.25;53.69;95421.56;2089949;28;20295;-72
2024/03/02 09:39:36;;;;;;;10.60;6.85;;;;;;;15.25;53.86;95404.03;2088897;28;20218;-71
2024/03/02 09:40:38;;;;;;;13.13;7.05;;;;;;;15.21;54.04;95418.38;2092738;28;20204;-71
2024/03/02 09:41:39;;;;;;;9.30;5.95;;;;;;;16.00;52.79;95420.53;2093614;28;20200;-71
2024/03/02 09:42:41;;;;;;;11.60;6.70;;;;;;;15.88;51.78;95408.41;2091906;28;20197;-71
2024/03/02 09:43:43;;;;;;;10.90;6.40;;;;;;;16.12;52.17;95423.06;2091487;28;20315;-71
2024/03/02 09:44:46;;;;;;;10.80;6.85;;;;;;;15.66;53.01;95417.28;2090498;28;20710;-71
2024/03/02 09:45:51;;;;;;;12.10;6.75;;;;;;;15.44;54.03;95423.50;2089926;28;20221;-71
2024/03/02 09:46:53;;;;;;;8.10;5.82;;;;;;;15.78;52.80;95413.63;2091882;28;20455;-71
2024/03/02 09:47:54;;;;;;;11.60;5.97;;;;;;;15.46;53.81;95416.34;2082555;28;20347;-71
2024/03/02 09:49:00;;;;;;;8.32;5.93;;;;;;;15.96;52.95;95415.66;2086170;28;20240;-72
2024/03/02 09:50:07;;;;;;;9.75;6.18;;;;;;;15.68;52.67;95408.31;2091299;28;20282;-72
2024/03/02 09:51:11;;;;;;;11.45;5.60;;;;;;;15.10;53.00;95373.75;2085018;28;20241;-71
2024/03/02 09:52:14;;;;;;;9.73;5.85;;;;;;;15.22;53.45;95395.53;2093344;28;20245;-72
2024/03/02 09:53:21;;;;;;;11.45;6.05;;;;;;;15.97;52.63;95391.00;2093774;28;20201;-72
2024/03/02 09:54:30;;;;;;;9.52;6.18;;;;;;;16.75;51.60;95380.66;2093555;28;20201;-72
2024/03/02 09:55:32;;;;;;;7.55;5.10;;;;;;;17.19;50.35;95390.84;2090911;28;20288;-72
2024/03/02 09:56:37;;;;;;;7.72;5.47;;;;;;;16.74;49.91;95360.53;2092255;28;20201;-72
2024/03/02 09:57:42;;;;;;;10.02;6.10;;;;;;;16.49;51.34;95390.88;2084454;28;20201;-73
2024/03/02 09:58:49;;;;;;;9.75;5.07;;;;;;;15.96;51.29;95352.47;2084364;28;20208;-74
2024/03/02 09:59:50;;;;;;;6.95;4.53;;;;;;;16.80;50.20;95390.81;2090283;28;20579;-72
2024/03/02 10:00:53;;;;;;;6.90;5.00;;;;;;;17.10;50.60;95412.75;2088496;28;20228;-73
2024/03/02 10:02:02;;;;;;;8.45;4.72;;;;;;;17.34;49.38;95383.31;2081945;28;20197;-73
2024/03/02 10:03:05;;;;;;;7.50;4.55;;;;;;;16.40;49.48;95391.72;2082604;28;20565;-73
2024/03/02 10:04:08;;;;;;;9.68;4.50;;;;;;;16.12;51.12;95412.56;2092766;28;20247;-72
2024/03/02 10:05:11;;;;;;;7.88;4.60;;;;;;;16.01;50.74;95410.84;2079986;28;20249;-72
2024/03/02 10:06:23;;;;;;;7.95;4.80;;;;;;;16.09;50.32;95412.81;2083632;28;20244;-72
2024/03/02 10:07:25;;;;;;;9.55;5.22;;;;;;;16.82;49.62;95407.31;2097006;28;20655;-72
2024/03/02 10:08:42;;;;;;;7.00;4.25;;;;;;;16.94;49.64;95400.16;2091246;28;20273;-72
2024/03/02 10:09:45;;;;;;;8.00;4.63;;;;;;;16.45;49.59;95408.75;2090386;28;20913;-72
2024/03/02 10:10:47;;;;;;;7.88;5.05;;;;;;;16.44;49.77;95386.03;2089679;28;20236;-72
2024/03/02 10:11:49;;;;;;;5.80;4.38;;;;;;;17.19;49.14;95390.84;2087286;28;20205;-72
2024/03/02 10:13:05;;;;;;;6.68;4.30;;;;;;;16.77;49.29;95394.56;2090038;28;20205;-72
2024/03/02 10:14:12;;;;;;;9.50;4.88;;;;;;;16.85;49.17;95390.38;2090562;28;20206;-72
2024/03/02 10:15:23;;;;;;;6.75;3.95;;;;;;;17.39;48.79;95404.81;2091613;28;20208;-72
2024/03/02 10:16:25;;;;;;;7.40;4.30;;;;;;;17.25;48.57;95400.00;2086609;28;20611;-72
2024/03/02 10:17:31;;;;;;;6.57;4.00;;;;;;;16.61;49.47;95404.78;2093138;28;20197;-72
2024/03/02 10:18:33;;;;;;;8.23;4.30;;;;;;;17.37;48.92;95395.38;2089162;28;20712;-71
2024/03/02 10:19:39;;;;;;;9.30;4.63;;;;;;;18.13;48.71;95402.44;2089538;28;20579;-72
2024/03/02 10:20:41;;;;;;;10.45;4.68;;;;;;;17.42;49.20;95394.00;2087719;28;20236;-73
2024/03/02 10:21:42;;;;;;;8.35;4.05;;;;;;;16.43;50.53;95404.59;2086023;28;20201;-72
2024/03/02 10:22:44;;;;;;;6.63;3.72;;;;;;;16.94;49.39;95406.25;2090386;28;20203;-71
2024/03/02 10:23:46;;;;;;;10.57;4.10;;;;;;;15.51;50.92;95401.00;2090854;28;20192;-72
2024/03/02 10:24:47;;;;;;;9.10;3.47;;;;;;;16.40;50.99;95399.59;2090078;28;20208;-72
2024/03/02 10:25:55;;;;;;;8.20;4.15;;;;;;;16.86;49.30;95398.16;2090383;28;20224;-72
2024/03/02 10:26:59;;;;;;;8.50;4.60;;;;;;;16.86;50.23;95400.81;2090160;28;20197;-72
2024/03/02 10:28:01;;;;;;;9.38;4.20;;;;;;;17.02;49.54;95395.00;2092891;28;20232;-72
2024/03/02 10:29:03;;;;;;;6.70;4.07;;;;;;;16.87;49.11;95396.34;2091168;28;20199;-73
2024/03/02 10:30:05;;;;;;;8.27;4.38;;;;;;;17.17;49.05;95392.78;2089049;28;20209;-72
2024/03/02 10:31:08;;;;;;;8.63;4.85;;;;;;;16.98;49.88;95402.34;2087126;28;20306;-72
2024/03/02 10:32:11;;;;;;;7.82;4.32;;;;;;;17.06;49.94;95392.91;2088908;28;20205;-72
2024/03/02 10:33:13;;;;;;;8.00;4.70;;;;;;;16.80;49.67;95404.00;2088063;28;20376;-73
2024/03/02 10:34:18;;;;;;;6.13;3.50;;;;;;;15.91;50.91;95399.44;2089672;28;20266;-72
2024/03/02 10:35:21;;;;;;;5.22;3.70;;;;;;;16.34;50.47;95393.09;2090610;28;20203;-72
2024/03/02 10:36:25;;;;;;;6.93;3.88;;;;;;;16.88;49.90;95376.94;2088008;28;20914;-72
2024/03/02 10:37:27;;;;;;;5.70;3.53;;;;;;;16.95;49.68;95373.63;2093379;28;20201;-73
2024/03/02 10:38:29;;;;;;;4.97;3.13;;;;;;;16.91;48.50;95384.59;2091267;28;20244;-72
2024/03/02 10:39:32;;;;;;;8.13;3.53;;;;;;;16.84;49.20;95386.91;2090961;28;20208;-72
2024/03/02 10:40:34;;;;;;;5.65;3.42;;;;;;;17.33;48.43;95384.31;2089188;28;20201;-73
2024/03/02 10:41:37;;;;;;;4.18;2.80;;;;;;;16.84;48.83;95383.47;2089507;28;20645;-72
2024/03/02 10:42:38;;;;;;;7.68;2.97;;;;;;;15.37;50.22;95369.78;2088950;28;20207;-72
2024/03/02 10:43:40;;;;;;;7.53;3.83;;;;;;;16.28;49.93;95388.34;2088366;28;20667;-66
2024/03/02 10:44:43;;;;;;;4.88;2.60;;;;;;;15.91;50.17;95392.38;2084763;28;20660;-67
2024/03/02 10:45:49;;;;;;;7.30;2.17;;;;;;;16.04;49.22;95392.16;2086346;28;20271;-66
2024/03/02 10:46:52;;;;;;;5.13;2.55;;;;;;;16.66;48.43;95386.78;2089387;28;20253;-67
2024/03/02 10:47:54;;;;;;;4.20;2.17;;;;;;;16.27;49.08;95378.78;2087488;28;20255;-67
2024/03/02 10:49:00;;;;;;;4.80;2.15;;;;;;;16.64;48.36;95389.50;2086515;28;20240;-72
2024/03/02 10:50:08;;;;;;;3.55;1.70;;;;;;;16.80;48.11;95378.44;2087668;28;20821;-72
2024/03/02 10:51:09;;;;;;;4.13;2.03;;;;;;;16.72;48.01;95393.28;2086846;28;20244;-72
2024/03/02 10:52:11;;;;;;;3.20;1.70;;;;;;;16.67;47.26;95380.53;2089445;28;20676;-72
2024/03/02 10:53:12;;;;;;;3.88;1.55;;;;;;;16.01;48.19;95381.91;2088293;28;20192;-73
2024/03/02 10:54:14;;;;;;;2.78;1.40;;;;;;;16.54;47.72;95380.75;2086009;28;20611;-73
2024/03/02 10:55:18;;;;;;;3.15;1.55;;;;;;;17.04;47.62;95382.53;2085147;28;20313;-72
2024/03/02 10:56:29;;;;;;;3.10;1.55;;;;;;;17.58;46.72;95368.81;2086049;28;20248;-66
2024/03/02 10:57:37;;;;;;;4.90;1.73;;;;;;;16.98;46.04;95380.44;2088372;28;20205;-66
2024/03/02 10:58:38;;;;;;;3.03;1.60;;;;;;;17.01;46.29;95374.06;2089462;28;20193;-67
2024/03/02 10:59:56;;;;;;;3.55;1.40;;;;;;;16.56;46.88;95367.47;2090125;28;20235;-66
2024/03/02 11:01:03;;;;;;;2.80;1.20;;;;;;;16.70;47.49;95374.97;2082679;28;20671;-66
2024/03/02 11:02:08;;;;;;;3.05;1.55;;;;;;;17.26;46.19;95372.66;2086560;28;20201;-67
2024/03/02 11:03:11;;;;;;;2.00;1.20;;;;;;;17.44;46.38;95364.84;2092050;28;20204;-66
2024/03/02 11:04:16;;;;;;;3.00;1.15;;;;;;;17.24;46.50;95370.16;2085946;28;20292;-67
2024/03/02 11:05:28;;;;;;;2.80;1.40;;;;;;;17.68;45.58;95368.81;2086674;28;20742;-67
2024/03/02 11:06:33;;;;;;;2.70;1.25;;;;;;;17.51;45.94;95373.84;2086476;28;20226;-66
2024/03/02 11:07:37;;;;;;;6.72;1.20;;;;;;;18.38;45.45;95363.94;2085921;28;20208;-67
2024/03/02 11:08:41;;;;;;;2.72;1.30;;;;;;;17.52;45.44;95378.16;2085351;28;20855;-67
2024/03/02 11:09:52;;;;;;;2.40;1.40;;;;;;;17.43;45.83;95368.44;2087596;28;20197;-67
2024/03/02 11:10:58;;;;;;;2.60;1.38;;;;;;;17.28;46.40;95368.03;2088105;28;20228;-67
2024/03/02 11:12:06;;;;;;;3.10;1.25;;;;;;;17.43;46.26;95369.28;2088929;28;20208;-67
2024/03/02 11:13:12;;;;;;;3.03;1.02;;;;;;;16.86;46.41;95365.69;2083813;28;20189;-67
2024/03/02 11:14:17;;;;;;;2.53;1.25;;;;;;;16.57;46.54;95367.34;2090876;28;20192;-68
2024/03/02 11:15:19;;;;;;;2.88;1.25;;;;;;;16.99;47.02;95366.28;2088343;28;20201;-67
2024/03/02 11:16:32;;;;;;;4.60;1.25;;;;;;;16.23;47.12;95369.50;2085363;28;20313;-66
2024/03/02 11:17:34;;;;;;;3.28;1.50;;;;;;;15.62;48.71;95364.09;2084898;28;20437;-66
2024/03/02 11:18:36;;;;;;;3.97;1.10;;;;;;;16.19;47.33;95362.81;2089887;28;20287;-65
2024/03/02 11:19:40;;;;;;;2.30;1.20;;;;;;;16.23;47.90;95357.16;2088231;28;20193;-65
2024/03/02 11:20:43;;;;;;;5.75;1.48;;;;;;;16.51;48.00;95348.63;2088928;28;20201;-64
2024/03/02 11:21:45;;;;;;;1.88;1.00;;;;;;;15.97;48.64;95335.72;2089640;28;20245;-65
2024/03/02 11:22:47;;;;;;;4.30;1.10;;;;;;;16.72;47.33;95346.69;2091214;28;20269;-64
2024/03/02 11:23:49;;;;;;;2.08;1.10;;;;;;;16.99;47.44;95345.19;2097531;28;20337;-64
2024/03/02 11:24:52;;;;;;;1.80;1.00;;;;;;;17.22;46.74;95337.78;2093952;28;20200;-65
2024/03/02 11:25:54;;;;;;;2.33;1.10;;;;;;;16.40;47.32;95346.91;2088540;28;20307;-65
2024/03/02 11:26:57;;;;;;;2.33;1.30;;;;;;;16.63;47.67;95342.22;2084628;28;20249;-64
2024/03/02 11:28:01;;;;;;;3.38;1.20;;;;;;;16.56;47.67;95331.41;2085128;28;20196;-65
2024/03/02 11:29:03;;;;;;;1.83;1.05;;;;;;;17.41;47.17;95338.75;2087480;28;20197;-65
2024/03/02 11:30:05;;;;;;;2.42;1.20;;;;;;;17.52;46.14;95332.44;2090041;28;20559;-65
2024/03/02 11:31:09;;;;;;;1.98;0.98;;;;;;;17.41;46.62;95339.56;2088411;28;20217;-65
2024/03/02 11:32:21;;;;;;;2.20;1.00;;;;;;;17.49;46.38;95336.22;2086325;28;20193;-65
2024/03/02 11:33:24;;;;;;;2.47;0.88;;;;;;;17.62;46.41;95334.09;2084762;28;20207;-65
2024/03/02 11:34:46;;;;;;;2.05;1.20;;;;;;;16.72;47.69;95333.50;2086922;28;20679;-71
2024/03/02 11:35:48;;;;;;;2.05;1.02;;;;;;;16.44;47.34;95309.63;2088382;28;20229;-65
2024/03/02 11:36:50;;;;;;;3.38;1.10;;;;;;;17.07;47.14;95321.56;2087463;28;20289;-65
2024/03/02 11:37:52;;;;;;;1.75;0.98;;;;;;;16.31;47.75;95317.78;2086081;28;20312;-65
2024/03/02 11:38:55;;;;;;;2.72;1.25;;;;;;;16.41;47.70;95316.97;2087758;28;20691;-65
2024/03/02 11:39:56;;;;;;;2.25;1.00;;;;;;;15.73;48.60;95321.09;2089837;28;20284;-64
2024/03/02 11:41:01;;;;;;;1.85;1.05;;;;;;;15.22;49.47;95314.03;2089590;28;20293;-64
2024/03/02 11:42:03;;;;;;;3.58;1.10;;;;;;;15.93;48.68;95332.50;2090387;28;20775;-64
2024/03/02 11:43:05;;;;;;;3.42;1.20;;;;;;;16.26;47.36;95321.81;2090581;28;20272;-65
2024/03/02 11:44:11;;;;;;;2.85;1.30;;;;;;;17.39;46.85;95330.13;2093390;28;20628;-65
2024/03/02 11:45:17;;;;;;;2.88;1.25;;;;;;;16.93;47.16;95316.75;2090222;28;20193;-65
2024/03/02 11:46:22;;;;;;;2.20;0.93;;;;;;;17.47;45.68;95317.03;2088815;28;20284;-65
2024/03/02 11:47:23;;;;;;;4.55;1.15;;;;;;;17.47;46.27;95322.31;2089827;28;20308;-64
2024/03/02 11:48:25;;;;;;;2.80;1.20;;;;;;;17.66;46.79;95316.16;2099566;28;20200;-65
2024/03/02 11:49:38;;;;;;;2.78;1.20;;;;;;;17.58;46.42;95321.31;2091076;28;20246;-67
2024/03/02 11:50:50;;;;;;;1.55;0.85;;;;;;;17.70;46.21;95312.25;2080158;28;20214;-67
2024/03/02 11:52:01;;;;;;;3.60;1.40;;;;;;;17.53;46.41;95316.47;2090790;28;20201;-67
2024/03/02 11:53:08;;;;;;;3.55;1.27;;;;;;;17.51;46.38;95305.25;2088805;28;20222;-67
2024/03/02 11:54:10;;;;;;;2.78;1.20;;;;;;;17.45;45.74;95317.19;2089548;28;20227;-73
2024/03/02 11:55:12;;;;;;;2.05;1.23;;;;;;;17.54;45.71;95315.50;2089830;28;20607;-73
2024/03/02 11:56:15;;;;;;;3.20;1.50;;;;;;;17.16;46.47;95314.63;2087291;28;20524;-73
2024/03/02 11:57:19;;;;;;;4.32;1.20;;;;;;;17.88;45.04;95312.31;2093965;28;20254;-73
2024/03/02 11:58:23;;;;;;;3.88;1.30;;;;;;;17.78;45.79;95309.72;2090490;28;20217;-73
2024/03/02 11:59:26;;;;;;;2.08;0.90;;;;;;;17.18;46.26;95306.56;2085257;28;20197;-72
2024/03/02 12:00:28;;;;;;;3.53;0.95;;;;;;;17.23;46.29;95309.59;2081524;28;20194;-71
2024/03/02 12:01:29;;;;;;;1.88;1.00;;;;;;;17.75;45.81;95307.38;2088203;28;20193;-72
2024/03/02 12:02:31;;;;;;;4.05;1.10;;;;;;;17.71;45.26;95302.50;2089508;28;20226;-73
2024/03/02 12:03:40;;;;;;;1.88;1.05;;;;;;;17.90;45.32;95301.59;2089757;28;20220;-69
2024/03/02 12:04:42;;;;;;;1.90;1.00;;;;;;;18.15;45.34;95289.53;2089406;28;20201;-67
2024/03/02 12:05:48;;;;;;;1.65;0.85;;;;;;;17.23;45.24;95284.06;2090645;28;20193;-67
2024/03/02 12:07:05;;;;;;;1.35;0.80;;;;;;;16.76;46.45;95281.31;2091033;28;20284;-67
2024/03/02 12:08:08;;;;;;;1.50;0.82;;;;;;;17.70;46.22;95292.94;2089761;28;20203;-67
2024/03/02 12:09:12;;;;;;;5.22;1.02;;;;;;;17.61;47.71;95278.78;2090489;28;20194;-67
2024/03/02 12:10:15;;;;;;;6.63;1.58;;;;;;;17.27;46.43;95296.00;2090162;28;20201;-67
2024/03/02 12:11:16;;;;;;;3.15;1.25;;;;;;;17.09;46.74;95284.50;2088170;28;20828;-67
2024/03/02 12:12:22;;;;;;;1.92;1.02;;;;;;;17.30;46.55;95281.69;2087595;28;20207;-66
2024/03/02 12:13:23;;;;;;;1.98;0.90;;;;;;;17.82;45.37;95272.47;2086298;28;20193;-67
2024/03/02 12:14:27;;;;;;;1.95;0.77;;;;;;;17.53;45.56;95278.69;2088410;28;20251;-67
2024/03/02 12:15:33;;;;;;;2.05;0.70;;;;;;;18.12;44.73;95284.56;2083870;28;20295;-71
2024/03/02 12:16:37;;;;;;;1.67;0.90;;;;;;;17.97;45.72;95288.66;2087668;28;20293;-71
2024/03/02 12:17:38;;;;;;;1.58;0.80;;;;;;;17.88;44.84;95279.81;2090905;28;20248;-72
2024/03/02 12:18:43;;;;;;;2.58;0.75;;;;;;;18.58;44.28;95285.34;2090481;28;20201;-72
2024/03/02 12:19:45;;;;;;;1.52;0.70;;;;;;;18.25;44.50;95292.13;2086885;28;20545;-70
2024/03/02 12:20:49;;;;;;;1.20;0.80;;;;;;;18.47;43.72;95295.31;2085543;28;21362;-69
2024/03/02 12:21:51;;;;;;;3.63;0.90;;;;;;;18.87;44.15;95284.28;2082615;28;20242;-69
2024/03/02 12:22:54;;;;;;;1.80;0.90;;;;;;;17.15;45.32;95281.31;2086330;28;20733;-69
2024/03/02 12:23:55;;;;;;;1.92;0.93;;;;;;;18.00;44.83;95277.81;2091704;28;20202;-69
2024/03/02 12:24:57;;;;;;;1.90;0.90;;;;;;;17.60;45.30;95279.78;2090686;28;20288;-69
2024/03/02 12:25:59;;;;;;;1.60;0.90;;;;;;;17.23;45.72;95278.81;2086490;28;20240;-69
2024/03/02 12:27:00;;;;;;;2.55;0.80;;;;;;;17.56;46.74;95279.25;2091101;28;20232;-69
2024/03/02 12:28:02;;;;;;;3.75;1.10;;;;;;;17.39;45.86;95286.09;2087733;28;20255;-69
2024/03/02 12:29:05;;;;;;;2.63;0.95;;;;;;;18.00;44.92;95283.09;2085619;28;20202;-69
2024/03/02 12:30:10;;;;;;;1.55;0.80;;;;;;;18.14;45.27;95277.31;2085970;28;20295;-69
2024/03/02 12:31:11;;;;;;;2.50;0.80;;;;;;;17.40;45.62;95281.66;2089786;28;21120;-69
2024/03/02 12:32:14;;;;;;;2.67;0.90;;;;;;;17.66;45.46;95273.94;2093427;28;20292;-70
2024/03/02 12:33:16;;;;;;;1.42;0.70;;;;;;;18.26;44.02;95267.38;2088413;28;20205;-69